Time;durP1;ratioP1;P1;durP2;ratioP2;P2;SDS_P1;SDS_P2;PMS_P1;PMS_P2;Temp;Humidity;BMP_temperature;BMP_pressure;BME280_temperature;BME280_humidity;BME280_pressure;Samples;Min_cycle;Max_cycle;Signal;HPM_P1;HPM_P2
2022/10/01 00:01:58;;;;;;;65.60;42.85;;;;;;;14.70;100.00;99985.11;1712885;83;21054;-67
2022/10/01 00:04:27;;;;;;;68.35;44.63;;;;;;;14.66;100.00;99981.77;1713053;83;21069;-65
2022/10/01 00:06:53;;;;;;;69.47;46.15;;;;;;;14.64;100.00;99978.83;1712917;83;21173;-66
2022/10/01 00:09:19;;;;;;;78.30;51.23;;;;;;;14.64;100.00;99966.42;1713312;83;21550;-67
2022/10/01 00:11:46;;;;;;;85.83;50.30;;;;;;;14.64;100.00;99966.90;1713129;83;21795;-66
2022/10/01 00:14:13;;;;;;;83.42;50.28;;;;;;;14.65;100.00;99962.84;1712974;83;21751;-65
2022/10/01 00:16:41;;;;;;;77.10;47.73;;;;;;;14.67;100.00;99967.56;1712984;83;21029;-66
2022/10/01 00:19:18;;;;;;;79.72;49.25;;;;;;;14.62;100.00;99956.84;1712873;83;21147;-67
2022/10/01 00:21:41;;;;;;;81.55;50.65;;;;;;;14.63;100.00;99961.20;1711731;83;21570;-66
2022/10/01 00:24:10;;;;;;;80.35;49.33;;;;;;;14.59;100.00;99951.26;1712821;83;21865;-67
2022/10/01 00:26:38;;;;;;;86.60;49.87;;;;;;;14.55;100.00;99955.49;1713151;83;21073;-66
2022/10/01 00:29:08;;;;;;;77.60;47.85;;;;;;;14.54;100.00;99947.11;1717006;83;21021;-66
2022/10/01 00:31:37;;;;;;;79.07;49.08;;;;;;;14.52;100.00;99952.99;1720828;83;21132;-66
2022/10/01 00:34:03;;;;;;;79.27;49.13;;;;;;;14.45;100.00;99948.02;1720926;83;21052;-65
2022/10/01 00:36:30;;;;;;;81.30;46.53;;;;;;;14.40;100.00;99948.76;1720803;83;22100;-66
2022/10/01 00:39:02;;;;;;;70.85;45.10;;;;;;;14.37;100.00;99949.39;1720662;83;21537;-65
2022/10/01 00:41:31;;;;;;;89.10;49.70;;;;;;;14.34;100.00;99950.41;1720002;83;21109;-66
2022/10/01 00:44:01;;;;;;;82.53;50.55;;;;;;;14.30;100.00;99944.89;1736466;80;21100;-68
2022/10/01 00:46:40;;;;;;;75.90;47.08;;;;;;;14.25;100.00;99949.59;1782445;80;21002;-66
2022/10/01 00:49:12;;;;;;;80.42;50.60;;;;;;;14.19;100.00;99946.80;1782042;80;21877;-66
2022/10/01 00:51:44;;;;;;;89.50;51.30;;;;;;;14.15;100.00;99944.41;1774809;80;21067;-66
2022/10/01 00:54:16;;;;;;;88.15;50.75;;;;;;;14.08;100.00;99943.03;1719996;83;21085;-66
2022/10/01 00:56:44;;;;;;;89.17;51.50;;;;;;;14.04;100.00;99948.50;1721010;83;21069;-67
2022/10/01 00:59:10;;;;;;;75.72;45.30;;;;;;;14.00;100.00;99942.98;1720992;83;21044;-65
2022/10/01 01:01:37;;;;;;;91.47;50.73;;;;;;;13.96;100.00;99946.73;1720905;83;21236;-66
2022/10/01 01:04:15;;;;;;;72.58;44.42;;;;;;;13.97;100.00;99945.81;1720827;83;21533;-65
2022/10/01 01:06:33;;;;;;;55.98;37.03;;;;;;;13.99;100.00;99955.84;1719286;83;21049;-67
2022/10/01 01:09:02;;;;;;;59.83;37.13;;;;;;;13.99;100.00;99951.88;1720863;83;21060;-67
2022/10/01 01:11:42;;;;;;;60.75;41.80;;;;;;;13.97;100.00;99947.13;1721014;83;21068;-66
2022/10/01 01:14:18;;;;;;;79.32;45.78;;;;;;;13.98;100.00;99946.18;1720492;83;21250;-66
2022/10/01 01:16:49;;;;;;;77.00;44.80;;;;;;;13.94;100.00;99947.75;1720137;83;21108;-66
2022/10/01 01:19:44;;;;;;;71.72;43.90;;;;;;;13.92;100.00;99948.30;1721141;83;21096;-66
2022/10/01 01:22:10;;;;;;;77.47;45.10;;;;;;;13.90;100.00;99946.23;1720913;83;21064;-67
2022/10/01 01:25:14;;;;;;;77.47;44.55;;;;;;;13.91;100.00;99953.22;1720875;83;21076;-66
2022/10/01 01:27:45;;;;;;;77.60;45.40;;;;;;;13.89;100.00;99949.33;1720915;83;21892;-65
2022/10/01 01:30:14;;;;;;;80.97;46.10;;;;;;;13.91;100.00;99945.28;1663213;84;21060;-66
2022/10/01 01:33:02;;;;;;;69.55;42.93;;;;;;;13.89;100.00;99937.41;1684079;85;21124;-65
2022/10/01 01:35:53;;;;;;;78.12;46.02;;;;;;;13.88;100.00;99934.39;1624454;86;21081;-65
2022/10/01 01:38:29;;;;;;;84.40;51.65;;;;;;;13.91;100.00;99938.19;1623759;88;21120;-66
2022/10/01 01:40:57;;;;;;;81.37;46.48;;;;;;;13.88;100.00;99938.36;1639274;87;21134;-65
2022/10/01 01:43:30;;;;;;;69.72;42.27;;;;;;;13.87;100.00;99943.25;1639422;86;21100;-66
2022/10/01 01:45:58;;;;;;;83.78;46.60;;;;;;;13.86;100.00;99941.55;1637700;86;21137;-65
2022/10/01 01:48:24;;;;;;;68.92;43.08;;;;;;;13.84;100.00;99942.10;1666179;86;21596;-65
2022/10/01 01:51:15;;;;;;;78.07;44.73;;;;;;;13.85;100.00;99940.70;1666118;86;21553;-66
2022/10/01 01:53:41;;;;;;;85.17;47.40;;;;;;;13.83;100.00;99947.87;1665857;86;21206;-67
2022/10/01 01:56:08;;;;;;;76.82;46.88;;;;;;;13.83;100.00;99945.23;1666202;86;21125;-66
2022/10/01 01:58:35;;;;;;;78.00;46.70;;;;;;;13.84;100.00;99944.75;1666352;85;21081;-66
2022/10/01 02:01:02;;;;;;;81.17;47.62;;;;;;;13.84;100.00;99946.08;1654822;86;21088;-67
2022/10/01 02:03:28;;;;;;;79.53;46.75;;;;;;;13.79;100.00;99949.44;1639183;87;21070;-67
2022/10/01 02:06:01;;;;;;;69.77;44.27;;;;;;;13.75;100.00;99949.21;1639048;87;21650;-66
2022/10/01 02:08:46;;;;;;;73.97;45.28;;;;;;;13.70;100.00;99946.81;1639113;87;21069;-66
2022/10/01 02:11:35;;;;;;;78.78;41.63;;;;;;;13.63;100.00;99952.89;1639005;87;21117;-66
2022/10/01 02:14:19;;;;;;;66.25;42.03;;;;;;;13.57;100.00;99953.67;1639387;87;21089;-66
2022/10/01 02:17:00;;;;;;;63.38;39.95;;;;;;;13.51;100.00;99950.05;1638824;87;21129;-66
2022/10/01 02:19:54;;;;;;;82.90;47.62;;;;;;;13.49;100.00;99950.59;1639506;87;21121;-66
2022/10/01 02:22:27;;;;;;;78.40;44.48;;;;;;;13.42;100.00;99950.05;1639003;87;21050;-65
2022/10/01 02:24:58;;;;;;;72.90;45.08;;;;;;;13.35;100.00;99946.01;1639033;86;21084;-66
2022/10/01 02:27:29;;;;;;;77.97;45.28;;;;;;;13.34;100.00;99955.74;1638936;87;21030;-66
2022/10/01 02:30:06;;;;;;;61.20;38.30;;;;;;;13.29;100.00;99951.12;1662250;84;21090;-66
2022/10/01 02:32:33;;;;;;;71.70;43.87;;;;;;;13.21;100.00;99958.11;1712945;83;21233;-65
2022/10/01 02:35:02;;;;;;;73.80;41.53;;;;;;;13.16;100.00;99951.36;1713204;83;21053;-65
2022/10/01 02:37:29;;;;;;;67.85;41.65;;;;;;;13.09;100.00;99947.28;1713060;83;21029;-66
2022/10/01 02:39:55;;;;;;;74.90;40.88;;;;;;;12.98;100.00;99944.72;1713334;83;21026;-66
2022/10/01 02:42:24;;;;;;;73.40;42.33;;;;;;;12.92;100.00;99946.34;1713033;83;21124;-67
2022/10/01 02:44:51;;;;;;;55.00;34.13;;;;;;;12.87;100.00;99951.48;1713197;83;21249;-67
2022/10/01 02:47:23;;;;;;;62.10;36.98;;;;;;;12.80;100.00;99955.73;1712785;83;21093;-66
2022/10/01 02:49:50;;;;;;;94.72;44.48;;;;;;;12.75;100.00;99959.55;1712872;83;21065;-66
2022/10/01 02:52:43;;;;;;;86.42;45.15;;;;;;;12.68;100.00;99953.70;1691573;83;21077;-65
2022/10/01 02:55:18;;;;;;;73.85;42.08;;;;;;;12.71;100.00;99960.14;1712906;83;21112;-66
2022/10/01 02:57:45;;;;;;;81.63;45.12;;;;;;;12.62;100.00;99961.91;1712732;83;21921;-66
2022/10/01 03:00:14;;;;;;;66.35;40.83;;;;;;;12.57;100.00;99961.28;1714671;82;21045;-66
2022/10/01 03:02:42;;;;;;;67.30;38.15;;;;;;;12.52;100.00;99956.69;1742525;82;21538;-66
2022/10/01 03:05:08;;;;;;;77.47;46.85;;;;;;;12.45;100.00;99955.28;1743854;82;21017;-66
2022/10/01 03:07:35;;;;;;;67.03;40.70;;;;;;;12.42;100.00;99948.80;1742353;82;21209;-67
2022/10/01 03:10:03;;;;;;;86.85;47.17;;;;;;;12.38;100.00;99948.95;1742492;82;21205;-67
2022/10/01 03:12:31;;;;;;;62.23;36.42;;;;;;;12.36;100.00;99942.88;1742647;82;21073;-65
2022/10/01 03:14:59;;;;;;;64.35;40.20;;;;;;;12.33;100.00;99952.72;1742374;81;21014;-67
2022/10/01 03:17:31;;;;;;;55.38;36.28;;;;;;;12.29;100.00;99954.67;1740553;82;21006;-66
2022/10/01 03:19:57;;;;;;;66.85;39.55;;;;;;;12.24;100.00;99952.72;1742500;82;21044;-66
2022/10/01 03:22:24;;;;;;;65.83;39.83;;;;;;;12.12;100.00;99941.38;1742693;82;21231;-65
2022/10/01 03:24:51;;;;;;;74.00;42.85;;;;;;;12.16;100.00;99962.76;1742310;82;21022;-65
2022/10/01 03:27:19;;;;;;;64.07;43.45;;;;;;;12.12;100.00;99958.55;1742695;82;21699;-65
2022/10/01 03:29:47;;;;;;;73.07;46.20;;;;;;;12.11;100.00;99963.44;1744808;82;21290;-65
2022/10/01 03:32:14;;;;;;;61.90;40.50;;;;;;;12.08;100.00;99955.20;1748358;82;21120;-66
2022/10/01 03:34:41;;;;;;;57.25;38.30;;;;;;;12.14;100.00;99963.30;1748245;82;21602;-66
2022/10/01 03:37:08;;;;;;;62.15;39.88;;;;;;;12.17;100.00;99972.41;1748004;82;21631;-66
2022/10/01 03:39:34;;;;;;;67.40;42.08;;;;;;;12.24;100.00;99969.87;1748591;82;21601;-65
2022/10/01 03:42:03;;;;;;;65.15;41.23;;;;;;;12.24;100.00;99967.23;1748247;82;21100;-66
2022/10/01 03:44:29;;;;;;;54.80;36.42;;;;;;;12.22;100.00;99971.73;1748138;82;21024;-67
2022/10/01 03:46:56;;;;;;;45.90;32.08;;;;;;;12.24;100.00;99972.52;1748139;82;21656;-66
2022/10/01 03:49:23;;;;;;;48.23;33.70;;;;;;;12.26;100.00;99964.06;1748310;82;21029;-66
2022/10/01 03:51:50;;;;;;;47.55;31.45;;;;;;;12.28;100.00;99962.66;1748100;82;21581;-65
2022/10/01 03:54:16;;;;;;;42.40;30.72;;;;;;;12.28;100.00;99958.22;1748275;82;21022;-67
2022/10/01 03:56:43;;;;;;;45.03;30.82;;;;;;;12.28;100.00;99950.30;1748257;82;21540;-66
2022/10/01 03:59:10;;;;;;;40.00;27.05;;;;;;;12.29;100.00;99946.75;1748287;82;22133;-66
2022/10/01 04:01:37;;;;;;;47.78;30.60;;;;;;;12.30;100.00;99953.73;1748295;82;21048;-65
2022/10/01 04:04:05;;;;;;;41.05;29.05;;;;;;;12.32;100.00;99970.36;1748173;82;21041;-67
2022/10/01 04:06:32;;;;;;;44.83;30.17;;;;;;;12.30;100.00;99965.61;1748205;82;21105;-65
2022/10/01 04:08:58;;;;;;;44.77;31.55;;;;;;;12.31;100.00;99963.37;1748379;82;21033;-66
2022/10/01 04:11:25;;;;;;;46.58;33.08;;;;;;;12.34;100.00;99965.02;1748261;82;21193;-66
2022/10/01 04:13:52;;;;;;;40.35;29.25;;;;;;;12.33;100.00;99961.53;1748196;82;21029;-67
2022/10/01 04:16:19;;;;;;;49.85;33.55;;;;;;;12.37;100.00;99959.11;1748173;82;21037;-66
2022/10/01 04:18:46;;;;;;;46.18;32.30;;;;;;;12.41;100.00;99965.59;1748161;82;21037;-66
2022/10/01 04:21:15;;;;;;;42.25;30.72;;;;;;;12.43;100.00;99967.22;1748033;82;21151;-66
2022/10/01 04:23:41;;;;;;;41.83;29.65;;;;;;;12.45;100.00;99971.13;1747640;82;21360;-67
2022/10/01 04:26:08;;;;;;;41.48;28.95;;;;;;;12.46;100.00;99974.14;1748187;82;21602;-66
2022/10/01 04:28:35;;;;;;;39.48;28.60;;;;;;;12.49;100.00;99973.55;1748006;82;21049;-66
2022/10/01 04:33:47;;;;;;;36.70;26.17;;;;;;;12.56;100.00;99965.72;1742786;82;21030;-65
2022/10/01 04:36:13;;;;;;;37.05;25.32;;;;;;;12.65;100.00;99969.68;1742611;82;22141;-67
2022/10/01 04:38:40;;;;;;;33.35;25.08;;;;;;;12.71;100.00;99974.67;1742746;82;21598;-67
2022/10/01 04:41:07;;;;;;;33.08;24.18;;;;;;;12.75;100.00;99977.56;1742928;82;21617;-66
2022/10/01 04:43:35;;;;;;;34.48;24.35;;;;;;;12.81;100.00;99980.37;1744244;81;21073;-67
2022/10/01 04:46:02;;;;;;;34.88;23.62;;;;;;;12.88;100.00;99973.00;1763458;81;21081;-67
2022/10/01 04:48:29;;;;;;;31.62;22.75;;;;;;;12.93;100.00;99978.91;1763215;81;21224;-66
2022/10/01 04:50:55;;;;;;;32.70;21.85;;;;;;;13.01;100.00;99983.36;1763332;81;22126;-66
2022/10/01 04:53:22;;;;;;;31.97;23.00;;;;;;;13.10;100.00;99987.34;1763093;81;21634;-67
2022/10/01 04:55:50;;;;;;;39.58;24.15;;;;;;;13.22;100.00;99982.76;1763376;81;21093;-66
2022/10/01 04:58:17;;;;;;;35.45;24.27;;;;;;;13.39;100.00;99979.31;1762962;81;21315;-66
2022/10/01 05:00:43;;;;;;;32.40;23.22;;;;;;;13.52;100.00;99976.88;1763109;81;21198;-67
2022/10/01 05:03:10;;;;;;;33.30;22.90;;;;;;;13.67;100.00;99983.18;1763097;81;21092;-67
2022/10/01 05:05:39;;;;;;;29.10;21.42;;;;;;;13.86;100.00;99977.29;1763266;81;21089;-67
2022/10/01 05:08:07;;;;;;;30.17;21.48;;;;;;;14.00;100.00;99989.31;1762982;81;21597;-68
2022/10/01 05:10:34;;;;;;;38.30;22.70;;;;;;;14.05;100.00;99984.63;1763348;81;21054;-65
2022/10/01 05:13:01;;;;;;;31.48;21.65;;;;;;;14.12;100.00;99984.30;1762983;81;21797;-66
2022/10/01 05:15:29;;;;;;;33.95;21.77;;;;;;;14.23;100.00;99991.20;1763164;81;21796;-68
2022/10/01 05:17:55;;;;;;;26.25;19.52;;;;;;;14.61;100.00;99993.59;1763136;81;20998;-67
2022/10/01 05:20:24;;;;;;;21.90;15.98;;;;;;;15.06;100.00;99998.52;1762951;81;21054;-67
2022/10/01 05:22:51;;;;;;;22.93;16.12;;;;;;;15.46;100.00;99994.85;1763287;81;21516;-67
2022/10/01 05:25:18;;;;;;;19.75;14.45;;;;;;;16.11;100.00;100000.66;1763321;81;21168;-66
2022/10/01 05:27:45;;;;;;;20.02;13.08;;;;;;;16.90;100.00;99989.91;1763162;81;21010;-68
2022/10/01 05:30:13;;;;;;;16.97;11.30;;;;;;;17.74;100.00;99995.86;1764164;81;21036;-67
2022/10/01 05:32:40;;;;;;;14.85;11.03;;;;;;;18.60;100.00;99995.98;1766156;81;21014;-67
2022/10/01 05:35:08;;;;;;;15.10;10.28;;;;;;;19.43;100.00;99988.52;1766112;81;21065;-67
2022/10/01 05:37:35;;;;;;;12.20;9.23;;;;;;;20.01;100.00;99986.34;1766259;81;21128;-66
2022/10/01 05:40:02;;;;;;;13.80;10.00;;;;;;;20.21;100.00;99985.63;1766295;81;21487;-67
2022/10/01 05:42:29;;;;;;;13.60;9.70;;;;;;;20.42;100.00;99992.91;1766351;81;21026;-68
2022/10/01 05:44:57;;;;;;;14.03;9.13;;;;;;;20.83;100.00;99984.72;1756030;81;21126;-68
2022/10/01 05:47:23;;;;;;;9.43;7.80;;;;;;;21.43;100.00;100002.03;1751180;81;21598;-69
2022/10/01 05:49:49;;;;;;;9.50;7.60;;;;;;;21.85;100.00;100000.67;1750717;82;21244;-67
2022/10/01 05:52:16;;;;;;;10.32;7.47;;;;;;;22.32;100.00;99993.03;1750622;82;21603;-68
2022/10/01 05:54:43;;;;;;;11.12;7.22;;;;;;;22.77;100.00;99992.58;1750740;81;21011;-70
2022/10/01 05:57:10;;;;;;;9.28;6.80;;;;;;;23.49;97.66;99994.56;1750643;82;21063;-68
2022/10/01 05:59:37;;;;;;;7.87;6.28;;;;;;;23.84;92.41;99995.30;1750878;81;21622;-68
2022/10/01 06:02:04;;;;;;;9.40;6.20;;;;;;;24.25;91.73;99992.34;1750669;82;21098;-67
2022/10/01 06:04:32;;;;;;;8.03;6.12;;;;;;;24.80;69.57;99988.31;1750760;82;21074;-68
2022/10/01 06:06:59;;;;;;;8.53;6.20;;;;;;;25.27;65.70;99978.68;1750913;82;21468;-68
2022/10/01 06:09:26;;;;;;;7.78;5.87;;;;;;;25.50;62.53;99973.64;1750962;82;21050;-66
2022/10/01 06:11:54;;;;;;;10.30;5.72;;;;;;;25.50;61.34;99970.11;1750729;82;21055;-67
2022/10/01 06:14:21;;;;;;;7.87;5.62;;;;;;;25.21;62.15;99960.94;1750837;82;22382;-67
2022/10/01 06:16:53;;;;;;;6.80;5.58;;;;;;;24.69;61.92;99973.21;1750677;81;21078;-67
2022/10/01 06:19:20;;;;;;;8.15;5.40;;;;;;;24.11;63.24;99977.53;1750485;82;21511;-68
2022/10/01 06:21:47;;;;;;;9.93;6.05;;;;;;;23.79;65.08;99979.27;1750611;82;21072;-68
2022/10/01 06:24:14;;;;;;;11.83;5.35;;;;;;;23.83;65.73;99977.95;1750654;81;21109;-68
2022/10/01 06:26:42;;;;;;;9.03;5.20;;;;;;;24.15;64.71;99975.38;1750664;82;21537;-68
2022/10/01 06:29:10;;;;;;;7.28;4.90;;;;;;;24.58;63.86;99972.58;1750457;81;21075;-68
2022/10/01 06:31:36;;;;;;;7.00;5.08;;;;;;;25.22;62.45;99972.91;1740809;82;21067;-68
2022/10/01 06:34:03;;;;;;;6.50;4.47;;;;;;;25.80;59.16;99972.00;1737571;82;21047;-68
2022/10/01 06:36:30;;;;;;;6.78;4.45;;;;;;;26.08;57.34;99974.03;1737871;82;21071;-67
2022/10/01 06:38:56;;;;;;;5.28;4.17;;;;;;;26.34;56.06;99973.98;1738119;82;21144;-68
2022/10/01 06:41:24;;;;;;;5.35;4.00;;;;;;;26.54;54.90;99980.84;1737768;82;21039;-67
2022/10/01 06:43:50;;;;;;;7.72;4.28;;;;;;;26.74;54.44;99990.03;1743000;81;21128;-67
2022/10/01 06:46:17;;;;;;;9.83;4.65;;;;;;;26.81;52.85;99991.56;1763036;81;21054;-68
2022/10/01 06:48:43;;;;;;;6.03;3.77;;;;;;;26.83;52.74;99987.69;1763491;81;21053;-70
2022/10/01 06:51:13;;;;;;;6.20;4.20;;;;;;;26.87;52.23;99990.41;1760377;81;22172;-68
2022/10/01 06:53:40;;;;;;;6.60;4.03;;;;;;;27.30;51.02;99982.19;1762919;81;21545;-69
2022/10/01 06:56:07;;;;;;;6.42;3.90;;;;;;;27.30;51.02;99982.19;1762883;81;21065;-69
2022/10/01 06:58:34;;;;;;;4.28;3.22;;;;;;;27.58;50.13;99984.03;1762943;81;21062;-68
2022/10/01 07:01:02;;;;;;;5.97;3.65;;;;;;;27.75;48.48;99985.72;1762934;81;21061;-68
2022/10/01 07:03:29;;;;;;;4.12;3.30;;;;;;;27.86;47.86;99990.45;1762866;81;21532;-69
2022/10/01 07:06:03;;;;;;;4.37;3.02;;;;;;;27.79;47.90;99978.95;1763218;81;21038;-68
2022/10/01 07:08:29;;;;;;;6.60;3.12;;;;;;;28.09;47.80;99976.55;1763258;81;21117;-69
2022/10/01 07:11:01;;;;;;;5.42;3.30;;;;;;;28.45;46.57;99971.98;1762946;81;21491;-68
2022/10/01 07:13:28;;;;;;;6.10;3.40;;;;;;;28.63;46.41;99973.95;1763275;81;21018;-68
2022/10/01 07:15:55;;;;;;;4.45;3.00;;;;;;;28.89;45.50;99974.12;1763569;81;21116;-68
2022/10/01 07:18:23;;;;;;;3.83;2.40;;;;;;;29.00;44.72;99976.43;1763070;81;21121;-68
2022/10/01 07:20:49;;;;;;;7.42;2.60;;;;;;;28.88;44.53;99968.39;1762978;81;21079;-69
2022/10/01 07:23:16;;;;;;;4.62;2.40;;;;;;;28.91;44.67;99962.60;1763073;81;21035;-70
2022/10/01 07:25:43;;;;;;;5.08;2.33;;;;;;;29.02;43.63;99963.55;1763150;81;21073;-68
2022/10/01 07:28:16;;;;;;;4.30;2.20;;;;;;;28.81;43.63;99967.42;1763167;81;21242;-70
2022/10/01 07:30:59;;;;;;;3.75;2.20;;;;;;;28.62;44.38;99962.80;1764108;81;21061;-69
2022/10/01 07:33:26;;;;;;;4.20;2.50;;;;;;;28.45;44.02;99971.47;1766039;81;21129;-68
2022/10/01 07:35:53;;;;;;;4.17;2.42;;;;;;;28.42;44.19;99964.22;1766311;81;21610;-68
2022/10/01 07:38:20;;;;;;;4.58;2.42;;;;;;;28.40;44.28;99975.73;1766329;81;21018;-68
2022/10/01 07:40:53;;;;;;;3.72;2.40;;;;;;;28.45;44.98;99972.82;1766277;81;21218;-69
2022/10/01 07:43:21;;;;;;;3.92;2.20;;;;;;;28.80;42.97;99973.85;1766517;81;21038;-68
2022/10/01 07:45:48;;;;;;;3.40;1.85;;;;;;;28.98;42.10;99975.77;1718198;83;21586;-68
2022/10/01 07:48:15;;;;;;;2.83;1.60;;;;;;;28.77;41.88;99972.86;1718328;83;21122;-69
2022/10/01 07:50:44;;;;;;;3.17;2.10;;;;;;;28.50;41.61;99972.32;1718214;83;21066;-68
2022/10/01 07:53:11;;;;;;;3.80;2.40;;;;;;;28.37;41.72;99972.03;1718560;83;21777;-67
2022/10/01 07:55:39;;;;;;;4.05;1.90;;;;;;;27.96;42.07;99974.88;1718139;83;21015;-67
2022/10/01 07:58:05;;;;;;;3.02;1.90;;;;;;;27.55;43.28;99979.81;1717885;83;21066;-68
2022/10/01 08:00:32;;;;;;;3.98;1.87;;;;;;;27.64;43.77;99969.00;1718110;83;21062;-68
2022/10/01 08:02:59;;;;;;;5.03;2.10;;;;;;;28.49;42.47;99955.75;1718353;83;21156;-69
2022/10/01 08:05:28;;;;;;;2.45;1.70;;;;;;;28.49;42.47;99955.75;1718013;83;21253;-67
2022/10/01 08:08:02;;;;;;;2.33;1.55;;;;;;;28.79;42.21;99955.92;1717113;83;21059;-67
2022/10/01 08:10:29;;;;;;;4.37;1.82;;;;;;;28.86;40.55;99954.17;1717932;83;21195;-69
2022/10/01 08:13:06;;;;;;;2.30;1.82;;;;;;;28.73;40.72;99946.63;1718196;83;21082;-69
2022/10/01 08:15:30;;;;;;;3.58;1.80;;;;;;;28.38;40.85;99952.05;1717714;83;21086;-68
2022/10/01 08:18:02;;;;;;;2.87;1.90;;;;;;;28.38;40.85;99952.05;1718188;83;21123;-69
2022/10/01 08:20:30;;;;;;;2.45;1.80;;;;;;;27.88;41.58;99950.53;1717807;83;21065;-70
2022/10/01 08:23:06;;;;;;;3.60;1.67;;;;;;;27.31;42.86;99950.94;1718084;83;21554;-68
2022/10/01 08:25:32;;;;;;;4.08;2.27;;;;;;;26.97;43.86;99960.01;1718300;83;21622;-69
2022/10/01 08:28:00;;;;;;;2.98;1.77;;;;;;;26.81;44.80;99957.80;1717983;83;21047;-68
2022/10/01 08:30:27;;;;;;;3.05;1.92;;;;;;;26.77;45.37;99961.33;1718036;83;21565;-68
2022/10/01 08:32:57;;;;;;;3.08;1.92;;;;;;;27.03;45.50;99944.12;1718095;83;21066;-69
2022/10/01 08:35:24;;;;;;;4.55;1.67;;;;;;;27.15;44.41;99929.29;1717665;83;21151;-67
2022/10/01 08:37:50;;;;;;;2.10;1.67;;;;;;;27.16;45.03;99932.31;1718143;83;21075;-69
2022/10/01 08:40:18;;;;;;;5.30;1.80;;;;;;;27.27;44.98;99933.36;1718435;83;21089;-68
2022/10/01 08:43:00;;;;;;;3.75;1.60;;;;;;;26.99;44.23;99936.37;1717884;83;22029;-68
2022/10/01 08:45:33;;;;;;;2.60;1.55;;;;;;;26.38;45.36;99936.20;1743809;82;21094;-69
2022/10/01 08:48:08;;;;;;;3.40;1.85;;;;;;;25.72;46.62;99936.36;1747675;82;21046;-68
2022/10/01 08:50:45;;;;;;;5.12;1.90;;;;;;;25.10;47.89;99941.80;1747575;82;21051;-70
2022/10/01 08:53:18;;;;;;;5.30;2.02;;;;;;;24.71;49.39;99947.48;1747995;82;21031;-67
2022/10/01 08:55:44;;;;;;;3.60;2.70;;;;;;;24.44;50.31;99944.30;1748093;82;21884;-68
2022/10/01 08:58:49;;;;;;;4.20;2.58;;;;;;;24.56;50.87;99947.65;1747771;82;21054;-67
2022/10/01 09:10:03;;;;;;;2.12;1.37;;;;;;;25.50;48.45;99948.53;1748231;82;21082;-67
2022/10/01 09:13:29;;;;;;;1.20;1.10;;;;;;;25.70;46.79;99948.67;1747858;82;21188;-69
2022/10/01 09:16:48;;;;;;;1.70;1.22;;;;;;;25.81;47.21;99941.31;1747781;82;21030;-68
2022/10/01 09:19:35;;;;;;;4.47;1.45;;;;;;;26.06;46.54;99944.50;1747988;82;21082;-68
2022/10/01 09:22:07;;;;;;;2.42;1.25;;;;;;;26.09;46.03;99949.60;1747754;82;21071;-69
2022/10/01 09:24:49;;;;;;;3.12;1.35;;;;;;;25.87;46.74;99951.50;1747532;82;21082;-67
2022/10/01 09:27:24;;;;;;;2.15;1.30;;;;;;;25.48;47.54;99954.58;1747908;82;21126;-69
2022/10/01 09:29:55;;;;;;;3.58;1.40;;;;;;;25.03;48.56;99955.52;1747931;82;21077;-68
2022/10/01 09:32:26;;;;;;;4.05;1.37;;;;;;;24.62;49.54;99958.66;1726665;82;21065;-68
2022/10/01 09:34:55;;;;;;;;;;;;;;;24.29;50.15;99966.80;1750925;82;21080;-69
2022/10/01 09:37:35;;;;;;;2.40;1.30;;;;;;;24.02;50.07;99972.53;1748516;82;20149;-69
2022/10/01 09:40:22;;;;;;;1.85;1.52;;;;;;;24.15;50.48;99967.30;1748327;82;21664;-67
2022/10/01 09:42:49;;;;;;;3.58;1.25;;;;;;;24.38;50.00;99971.29;1748216;82;21030;-69
2022/10/01 09:45:17;;;;;;;4.92;1.20;;;;;;;24.86;48.28;99957.22;1760332;81;21058;-69
2022/10/01 09:47:47;;;;;;;1.10;1.00;;;;;;;25.16;47.64;99964.06;1763573;81;21097;-67
2022/10/01 09:50:18;;;;;;;5.92;1.25;;;;;;;25.52;46.97;99964.06;1763740;81;21125;-67
2022/10/01 09:52:45;;;;;;;3.08;1.00;;;;;;;25.68;46.01;99957.42;1762805;81;21917;-68
2022/10/01 09:55:34;;;;;;;5.30;1.52;;;;;;;25.89;45.46;99961.13;1763933;81;21137;-68
2022/10/01 09:58:21;;;;;;;5.05;1.65;;;;;;;26.29;44.14;99952.88;1763606;81;21605;-68
2022/10/01 10:00:50;;;;;;;2.70;1.10;;;;;;;26.73;43.74;99957.26;1763901;81;21070;-67
2022/10/01 10:03:27;;;;;;;2.17;1.17;;;;;;;26.95;42.36;99952.57;1763704;81;21549;-67
2022/10/01 10:05:53;;;;;;;1.77;1.22;;;;;;;26.58;42.69;99958.41;1763953;81;21198;-68
2022/10/01 10:08:29;;;;;;;1.65;1.17;;;;;;;26.41;42.92;99954.80;1763936;81;21029;-68
2022/10/01 10:11:05;;;;;;;3.22;0.90;;;;;;;26.72;43.22;99958.28;1763702;81;21041;-69
2022/10/01 10:13:40;;;;;;;9.15;1.17;;;;;;;27.29;41.63;99948.91;1763619;81;21085;-69
2022/10/01 10:16:24;;;;;;;2.83;0.70;;;;;;;27.51;40.84;99951.41;1763774;81;21553;-69
2022/10/01 10:18:51;;;;;;;1.22;0.75;;;;;;;27.32;41.46;99947.21;1763823;81;21262;-68
2022/10/01 10:21:26;;;;;;;2.72;0.90;;;;;;;27.07;41.66;99949.55;1763955;81;21053;-67
2022/10/01 10:23:58;;;;;;;5.53;1.02;;;;;;;26.82;41.92;99961.66;1763751;81;21597;-69
2022/10/01 10:26:37;;;;;;;3.62;1.42;;;;;;;26.49;42.45;99952.62;1763901;81;21046;-67
2022/10/01 10:29:07;;;;;;;2.45;1.30;;;;;;;26.31;42.51;99944.11;1763830;81;21065;-69
2022/10/01 10:31:43;;;;;;;1.47;1.10;;;;;;;26.25;43.20;99956.92;1764440;81;21262;-69
2022/10/01 10:34:22;;;;;;;3.83;1.10;;;;;;;26.17;42.97;99951.48;1768672;81;20991;-70
2022/10/01 10:36:52;;;;;;;2.15;0.95;;;;;;;26.17;43.19;99952.83;1768997;80;21551;-68
2022/10/01 10:39:25;;;;;;;2.65;0.93;;;;;;;26.03;43.51;99959.68;1687401;81;21037;-68
2022/10/01 10:44:42;;;;;;;2.33;1.17;;;;;;;25.82;44.68;99949.25;1881906;75;22551;-69
2022/10/01 10:47:12;;;;;;;2.50;1.25;;;;;;;25.84;44.51;99953.15;1858725;77;21567;-67
2022/10/01 10:50:01;;;;;;;2.70;1.60;;;;;;;25.94;44.33;99939.06;1859324;77;21736;-68
2022/10/01 10:52:35;;;;;;;2.65;1.30;;;;;;;25.78;44.98;99929.50;1858667;77;20995;-69
2022/10/01 10:55:29;;;;;;;2.75;1.00;;;;;;;25.68;45.45;99927.77;1859034;77;20965;-69
2022/10/01 10:58:12;;;;;;;2.70;1.10;;;;;;;25.68;46.10;99919.67;1850322;76;21064;-69
2022/10/01 11:00:51;;;;;;;1.45;1.00;;;;;;;25.75;45.68;99929.32;1826264;77;21108;-67
2022/10/01 11:03:24;;;;;;;3.55;1.32;;;;;;;25.71;45.28;99929.29;1859022;77;21221;-69
2022/10/01 11:05:54;;;;;;;6.78;1.32;;;;;;;25.54;45.46;99928.35;1859192;77;21082;-67
2022/10/01 11:08:26;;;;;;;2.90;1.35;;;;;;;25.29;45.97;99934.06;1858846;77;20953;-66
2022/10/01 11:11:26;;;;;;;2.15;1.25;;;;;;;25.06;46.51;99935.86;1859174;77;21096;-69
2022/10/01 11:14:10;;;;;;;0.98;0.85;;;;;;;25.07;46.50;99923.23;1858155;76;21071;-68
2022/10/01 11:17:29;;;;;;;11.18;1.80;;;;;;;24.84;47.29;99916.96;1858630;77;22143;-68
2022/10/01 11:20:23;;;;;;;2.50;1.20;;;;;;;24.45;48.13;99917.20;1858843;77;21031;-66
2022/10/01 11:23:17;;;;;;;2.50;1.30;;;;;;;23.96;49.35;99931.92;1853782;77;21006;-69
2022/10/01 11:26:32;;;;;;;2.42;1.30;;;;;;;23.63;50.24;99925.56;1851637;77;20991;-69
2022/10/01 11:29:19;;;;;;;2.40;1.60;;;;;;;23.30;52.04;99924.71;1851808;77;21768;-67
2022/10/01 11:32:26;;;;;;;2.20;1.50;;;;;;;23.16;52.73;99928.18;1851342;77;21179;-68
2022/10/01 11:35:07;;;;;;;1.92;1.50;;;;;;;23.01;52.85;99917.55;1808366;79;21622;-68
2022/10/01 11:38:07;;;;;;;6.45;1.82;;;;;;;22.80;53.60;99914.47;1848643;77;21031;-69
2022/10/01 11:40:57;;;;;;;4.78;1.50;;;;;;;22.71;54.78;99912.63;1808057;77;21023;-68
2022/10/01 11:43:33;;;;;;;3.98;1.77;;;;;;;22.63;54.90;99913.80;1850752;77;21050;-69
2022/10/01 11:46:15;;;;;;;3.35;1.50;;;;;;;22.49;54.75;99908.84;1817199;78;21192;-68
2022/10/01 11:49:01;;;;;;;4.12;1.90;;;;;;;22.31;55.30;99907.32;1818222;78;21049;-68
2022/10/01 11:51:31;;;;;;;5.83;1.92;;;;;;;22.09;56.38;99909.72;1814763;78;21025;-68
2022/10/01 11:54:01;;;;;;;4.95;1.27;;;;;;;21.97;57.13;99905.79;1817757;78;21085;-68
2022/10/01 11:59:10;;;;;;;3.10;1.50;;;;;;;21.75;57.86;99897.94;1744048;79;21142;-69
2022/10/01 12:02:06;;;;;;;7.72;1.87;;;;;;;21.68;58.60;99908.83;1817175;79;21026;-68